sensor_id;sensor_type;location;lat;lon;timestamp;pressure;altitude;pressure_sealevel;temperature
68440;BMP180;55421;51.600;5.718;2024-01-11T00:00:10;215587.41;;;-5.20
68440;BMP180;55421;51.600;5.718;2024-01-11T00:02:57;215595.41;;;-5.20
68440;BMP180;55421;51.600;5.718;2024-01-11T00:05:23;215605.41;;;-5.20
68440;BMP180;55421;51.600;5.718;2024-01-11T00:07:50;215598.59;;;-5.20
68440;BMP180;55421;51.600;5.718;2024-01-11T00:10:17;215585.41;;;-5.20
68440;BMP180;55421;51.600;5.718;2024-01-11T00:12:44;215566.20;;;-5.28
68440;BMP180;55421;51.600;5.718;2024-01-11T00:15:10;215547.41;;;-5.30
68440;BMP180;55421;51.600;5.718;2024-01-11T00:17:36;215525.59;;;-5.30
68440;BMP180;55421;51.600;5.718;2024-01-11T00:20:04;215509.20;;;-5.36
68440;BMP180;55421;51.600;5.718;2024-01-11T00:22:30;215511.59;;;-5.38
68440;BMP180;55421;51.600;5.718;2024-01-11T00:24:57;215522.00;;;-5.30
68440;BMP180;55421;51.600;5.718;2024-01-11T00:27:23;215529.59;;;-5.30
68440;BMP180;55421;51.600;5.718;2024-01-11T00:29:50;215531.20;;;-5.30
68440;BMP180;55421;51.600;5.718;2024-01-11T00:32:16;215518.41;;;-5.30
68440;BMP180;55421;51.600;5.718;2024-01-11T00:34:43;215500.80;;;-5.38
68440;BMP180;55421;51.600;5.718;2024-01-11T00:37:09;215482.41;;;-5.40
68440;BMP180;55421;51.600;5.718;2024-01-11T00:39:36;215459.41;;;-5.44
68440;BMP180;55421;51.600;5.718;2024-01-11T00:42:02;215452.20;;;-5.48
68440;BMP180;55421;51.600;5.718;2024-01-11T00:44:29;215459.00;;;-5.44
68440;BMP180;55421;51.600;5.718;2024-01-11T00:46:56;215473.41;;;-5.40
68440;BMP180;55421;51.600;5.718;2024-01-11T00:49:22;215471.41;;;-5.40
68440;BMP180;55421;51.600;5.718;2024-01-11T00:51:48;215468.59;;;-5.40
68440;BMP180;55421;51.600;5.718;2024-01-11T00:54:15;215455.80;;;-5.48
68440;BMP180;55421;51.600;5.718;2024-01-11T00:56:41;215440.59;;;-5.50
68440;BMP180;55421;51.600;5.718;2024-01-11T00:59:08;215423.80;;;-5.50
68440;BMP180;55421;51.600;5.718;2024-01-11T01:01:34;215412.20;;;-5.52
68440;BMP180;55421;51.600;5.718;2024-01-11T01:04:01;215407.80;;;-5.50
68440;BMP180;55421;51.600;5.718;2024-01-11T01:06:27;215428.20;;;-5.50
68440;BMP180;55421;51.600;5.718;2024-01-11T01:08:55;215443.41;;;-5.50
68440;BMP180;55421;51.600;5.718;2024-01-11T01:11:22;215453.00;;;-5.48
68440;BMP180;55421;51.600;5.718;2024-01-11T01:13:48;215450.59;;;-5.46
68440;BMP180;55421;51.600;5.718;2024-01-11T01:16:15;215443.80;;;-5.50
68440;BMP180;55421;51.600;5.718;2024-01-11T01:18:44;215416.59;;;-5.50
68440;BMP180;55421;51.600;5.718;2024-01-11T01:21:11;215387.80;;;-5.60
68440;BMP180;55421;51.600;5.718;2024-01-11T01:23:37;215367.41;;;-5.60
68440;BMP180;55421;51.600;5.718;2024-01-11T01:26:04;215365.41;;;-5.60
68440;BMP180;55421;51.600;5.718;2024-01-11T01:28:30;215374.59;;;-5.60
68440;BMP180;55421;51.600;5.718;2024-01-11T01:30:57;215390.20;;;-5.60
68440;BMP180;55421;51.600;5.718;2024-01-11T01:33:24;215391.80;;;-5.60
68440;BMP180;55421;51.600;5.718;2024-01-11T01:35:50;215376.20;;;-5.60
68440;BMP180;55421;51.600;5.718;2024-01-11T01:38:16;215359.80;;;-5.60
68440;BMP180;55421;51.600;5.718;2024-01-11T01:40:43;215341.59;;;-5.70
68440;BMP180;55421;51.600;5.718;2024-01-11T01:43:10;215330.20;;;-5.70
68440;BMP180;55421;51.600;5.718;2024-01-11T01:45:36;215337.80;;;-5.70
68440;BMP180;55421;51.600;5.718;2024-01-11T01:48:03;215350.41;;;-5.62
68440;BMP180;55421;51.600;5.718;2024-01-11T01:50:31;215351.80;;;-5.64
68440;BMP180;55421;51.600;5.718;2024-01-11T01:52:59;215330.20;;;-5.70
68440;BMP180;55421;51.600;5.718;2024-01-11T01:55:27;215303.59;;;-5.70
68440;BMP180;55421;51.600;5.718;2024-01-11T01:57:56;215293.80;;;-5.70
68440;BMP180;55421;51.600;5.718;2024-01-11T02:00:24;215278.41;;;-5.78
68440;BMP180;55421;51.600;5.718;2024-01-11T02:02:51;215254.20;;;-5.80
68440;BMP180;55421;51.600;5.718;2024-01-11T02:05:21;215251.41;;;-5.80
68440;BMP180;55421;51.600;5.718;2024-01-11T02:07:48;215259.80;;;-5.80
68440;BMP180;55421;51.600;5.718;2024-01-11T02:10:15;215273.41;;;-5.80
68440;BMP180;55421;51.600;5.718;2024-01-11T02:12:43;215289.41;;;-5.74
68440;BMP180;55421;51.600;5.718;2024-01-11T02:15:10;215286.00;;;-5.72
68440;BMP180;55421;51.600;5.718;2024-01-11T02:17:40;215290.00;;;-5.78
68440;BMP180;55421;51.600;5.718;2024-01-11T02:20:08;215265.41;;;-5.80
68440;BMP180;55421;51.600;5.718;2024-01-11T02:22:38;215243.00;;;-5.80
68440;BMP180;55421;51.600;5.718;2024-01-11T02:25:07;215221.41;;;-5.90
68440;BMP180;55421;51.600;5.718;2024-01-11T02:27:47;215200.80;;;-5.90
68440;BMP180;55421;51.600;5.718;2024-01-11T02:30:14;215176.80;;;-5.94
68440;BMP180;55421;51.600;5.718;2024-01-11T02:32:44;215164.41;;;-6.00
68440;BMP180;55421;51.600;5.718;2024-01-11T02:35:14;215168.41;;;-5.98
68440;BMP180;55421;51.600;5.718;2024-01-11T02:37:41;215182.00;;;-5.94
68440;BMP180;55421;51.600;5.718;2024-01-11T02:40:09;215187.20;;;-5.90
68440;BMP180;55421;51.600;5.718;2024-01-11T02:42:36;215183.20;;;-5.94
68440;BMP180;55421;51.600;5.718;2024-01-11T02:45:03;215167.20;;;-5.98
68440;BMP180;55421;51.600;5.718;2024-01-11T02:47:30;215158.80;;;-6.00
68440;BMP180;55421;51.600;5.718;2024-01-11T02:49:57;215135.20;;;-6.00
68440;BMP180;55421;51.600;5.718;2024-01-11T02:52:23;215107.59;;;-6.10
68440;BMP180;55421;51.600;5.718;2024-01-11T02:54:50;215084.41;;;-6.10
68440;BMP180;55421;51.600;5.718;2024-01-11T02:57:16;215081.59;;;-6.10
68440;BMP180;55421;51.600;5.718;2024-01-11T02:59:43;215092.41;;;-6.10
68440;BMP180;55421;51.600;5.718;2024-01-11T03:02:10;215104.80;;;-6.10
68440;BMP180;55421;51.600;5.718;2024-01-11T03:04:36;215104.80;;;-6.10
68440;BMP180;55421;51.600;5.718;2024-01-11T03:07:03;215104.80;;;-6.10
68440;BMP180;55421;51.600;5.718;2024-01-11T03:09:29;215090.00;;;-6.10
68440;BMP180;55421;51.600;5.718;2024-01-11T03:11:56;215074.59;;;-6.10
68440;BMP180;55421;51.600;5.718;2024-01-11T03:14:22;215056.59;;;-6.20
68440;BMP180;55421;51.600;5.718;2024-01-11T03:16:49;215042.59;;;-6.20
68440;BMP180;55421;51.600;5.718;2024-01-11T03:19:15;215019.20;;;-6.20
68440;BMP180;55421;51.600;5.718;2024-01-11T03:21:45;215035.00;;;-6.20
68440;BMP180;55421;51.600;5.718;2024-01-11T03:24:13;215043.80;;;-6.20
68440;BMP180;55421;51.600;5.718;2024-01-11T03:26:41;215042.80;;;-6.20
68440;BMP180;55421;51.600;5.718;2024-01-11T03:29:08;215038.80;;;-6.20
68440;BMP180;55421;51.600;5.718;2024-01-11T03:31:34;215027.20;;;-6.20
68440;BMP180;55421;51.600;5.718;2024-01-11T03:34:00;215018.80;;;-6.22
68440;BMP180;55421;51.600;5.718;2024-01-11T03:36:27;214994.80;;;-6.30
68440;BMP180;55421;51.600;5.718;2024-01-11T03:38:53;214963.20;;;-6.30
68440;BMP180;55421;51.600;5.718;2024-01-11T03:41:20;214941.59;;;-6.40
68440;BMP180;55421;51.600;5.718;2024-01-11T03:43:46;214925.80;;;-6.40
68440;BMP180;55421;51.600;5.718;2024-01-11T03:46:13;214916.59;;;-6.40
68440;BMP180;55421;51.600;5.718;2024-01-11T03:48:39;214925.41;;;-6.40
68440;BMP180;55421;51.600;5.718;2024-01-11T03:51:06;214936.59;;;-6.40
68440;BMP180;55421;51.600;5.718;2024-01-11T03:53:36;214942.80;;;-6.40
68440;BMP180;55421;51.600;5.718;2024-01-11T03:56:03;214959.20;;;-6.30
68440;BMP180;55421;51.600;5.718;2024-01-11T03:58:30;214959.20;;;-6.34
68440;BMP180;55421;51.600;5.718;2024-01-11T04:00:56;214945.41;;;-6.38
68440;BMP180;55421;51.600;5.718;2024-01-11T04:03:23;214937.80;;;-6.40
68440;BMP180;55421;51.600;5.718;2024-01-11T04:05:49;214909.80;;;-6.40
68440;BMP180;55421;51.600;5.718;2024-01-11T04:08:16;214881.80;;;-6.50
68440;BMP180;55421;51.600;5.718;2024-01-11T04:10:43;214867.80;;;-6.50
68440;BMP180;55421;51.600;5.718;2024-01-11T04:13:09;214856.20;;;-6.50
68440;BMP180;55421;51.600;5.718;2024-01-11T04:15:36;214859.00;;;-6.50
68440;BMP180;55421;51.600;5.718;2024-01-11T04:18:03;214864.59;;;-6.50
68440;BMP180;55421;51.600;5.718;2024-01-11T04:20:29;214859.41;;;-6.50
68440;BMP180;55421;51.600;5.718;2024-01-11T04:22:56;214849.41;;;-6.50
68440;BMP180;55421;51.600;5.718;2024-01-11T04:25:22;214831.00;;;-6.58
68440;BMP180;55421;51.600;5.718;2024-01-11T04:27:48;214823.80;;;-6.60
68440;BMP180;55421;51.600;5.718;2024-01-11T04:30:15;214838.20;;;-6.60
68440;BMP180;55421;51.600;5.718;2024-01-11T04:32:41;214843.00;;;-6.52
68440;BMP180;55421;51.600;5.718;2024-01-11T04:35:08;214842.59;;;-6.50
68440;BMP180;55421;51.600;5.718;2024-01-11T04:37:34;214843.00;;;-6.52
68440;BMP180;55421;51.600;5.718;2024-01-11T04:40:02;214829.80;;;-6.60
68440;BMP180;55421;51.600;5.718;2024-01-11T04:42:29;214818.59;;;-6.60
68440;BMP180;55421;51.600;5.718;2024-01-11T04:44:56;214819.80;;;-6.60
68440;BMP180;55421;51.600;5.718;2024-01-11T04:47:22;214822.59;;;-6.60
68440;BMP180;55421;51.600;5.718;2024-01-11T04:49:49;214821.00;;;-6.60
68440;BMP180;55421;51.600;5.718;2024-01-11T04:52:15;214829.80;;;-6.60
68440;BMP180;55421;51.600;5.718;2024-01-11T04:54:42;214818.59;;;-6.60
68440;BMP180;55421;51.600;5.718;2024-01-11T04:57:08;214802.00;;;-6.60
68440;BMP180;55421;51.600;5.718;2024-01-11T04:59:35;214788.00;;;-6.68
68440;BMP180;55421;51.600;5.718;2024-01-11T05:02:01;214780.80;;;-6.70
68440;BMP180;55421;51.600;5.718;2024-01-11T05:04:27;214782.00;;;-6.70
68440;BMP180;55421;51.600;5.718;2024-01-11T05:06:54;214784.41;;;-6.66
68440;BMP180;55421;51.600;5.718;2024-01-11T05:09:21;214775.80;;;-6.70
68440;BMP180;55421;51.600;5.718;2024-01-11T05:11:47;214756.59;;;-6.70
68440;BMP180;55421;51.600;5.718;2024-01-11T05:14:13;214746.20;;;-6.70
68440;BMP180;55421;51.600;5.718;2024-01-11T05:16:40;214730.20;;;-6.80
68440;BMP180;55421;51.600;5.718;2024-01-11T05:19:08;214736.59;;;-6.72
68440;BMP180;55421;51.600;5.718;2024-01-11T05:21:35;214749.00;;;-6.70
68440;BMP180;55421;51.600;5.718;2024-01-11T05:24:02;214755.41;;;-6.70
68440;BMP180;55421;51.600;5.718;2024-01-11T05:26:29;214762.80;;;-6.70
68440;BMP180;55421;51.600;5.718;2024-01-11T05:28:55;214750.20;;;-6.70
68440;BMP180;55421;51.600;5.718;2024-01-11T05:31:22;214742.20;;;-6.70
68440;BMP180;55421;51.600;5.718;2024-01-11T05:33:48;214726.20;;;-6.78
68440;BMP180;55421;51.600;5.718;2024-01-11T05:36:15;214718.20;;;-6.80
68440;BMP180;55421;51.600;5.718;2024-01-11T05:38:41;214731.80;;;-6.74
68440;BMP180;55421;51.600;5.718;2024-01-11T05:41:08;214751.41;;;-6.70
68440;BMP180;55421;51.600;5.718;2024-01-11T05:43:34;214760.20;;;-6.70
68440;BMP180;55421;51.600;5.718;2024-01-11T05:46:01;214762.00;;;-6.70
68440;BMP180;55421;51.600;5.718;2024-01-11T05:48:28;214759.59;;;-6.70
68440;BMP180;55421;51.600;5.718;2024-01-11T05:50:55;214749.00;;;-6.70
68440;BMP180;55421;51.600;5.718;2024-01-11T05:53:21;214733.00;;;-6.72
68440;BMP180;55421;51.600;5.718;2024-01-11T05:55:48;214726.59;;;-6.78
68440;BMP180;55421;51.600;5.718;2024-01-11T05:58:14;214741.00;;;-6.70
68440;BMP180;55421;51.600;5.718;2024-01-11T06:00:41;214749.00;;;-6.70
68440;BMP180;55421;51.600;5.718;2024-01-11T06:03:08;214747.80;;;-6.70
68440;BMP180;55421;51.600;5.718;2024-01-11T06:05:34;214750.20;;;-6.70
68440;BMP180;55421;51.600;5.718;2024-01-11T06:08:01;214732.59;;;-6.78
68440;BMP180;55421;51.600;5.718;2024-01-11T06:10:27;214712.59;;;-6.80
68440;BMP180;55421;51.600;5.718;2024-01-11T06:12:54;214697.00;;;-6.80
68440;BMP180;55421;51.600;5.718;2024-01-11T06:15:20;214675.59;;;-6.82
68440;BMP180;55421;51.600;5.718;2024-01-11T06:17:46;214678.41;;;-6.80
68440;BMP180;55421;51.600;5.718;2024-01-11T06:20:13;214693.41;;;-6.80
68440;BMP180;55421;51.600;5.718;2024-01-11T06:22:39;214722.20;;;-6.80
68440;BMP180;55421;51.600;5.718;2024-01-11T06:25:06;214725.00;;;-6.78
68440;BMP180;55421;51.600;5.718;2024-01-11T06:27:33;214726.20;;;-6.78
68440;BMP180;55421;51.600;5.718;2024-01-11T06:29:59;214718.20;;;-6.80
68440;BMP180;55421;51.600;5.718;2024-01-11T06:32:26;214687.41;;;-6.80
68440;BMP180;55421;51.600;5.718;2024-01-11T06:34:52;214670.59;;;-6.88
68440;BMP180;55421;51.600;5.718;2024-01-11T06:37:19;214642.41;;;-6.90
68440;BMP180;55421;51.600;5.718;2024-01-11T06:39:45;214615.59;;;-6.96
68440;BMP180;55421;51.600;5.718;2024-01-11T06:42:12;214602.00;;;-7.00
68440;BMP180;55421;51.600;5.718;2024-01-11T06:44:38;214630.00;;;-6.92
68440;BMP180;55421;51.600;5.718;2024-01-11T06:47:05;214638.00;;;-6.90
68440;BMP180;55421;51.600;5.718;2024-01-11T06:49:31;214644.80;;;-6.90
68440;BMP180;55421;51.600;5.718;2024-01-11T06:51:58;214650.41;;;-6.90
68440;BMP180;55421;51.600;5.718;2024-01-11T06:54:24;214636.80;;;-6.90
68440;BMP180;55421;51.600;5.718;2024-01-11T06:56:51;214583.20;;;-7.00
68440;BMP180;55421;51.600;5.718;2024-01-11T06:59:18;214548.80;;;-7.10
68440;BMP180;55421;51.600;5.718;2024-01-11T07:01:45;214521.80;;;-7.10
68440;BMP180;55421;51.600;5.718;2024-01-11T07:04:11;214496.00;;;-7.20
68440;BMP180;55421;51.600;5.718;2024-01-11T07:06:38;214471.20;;;-7.20
68440;BMP180;55421;51.600;5.718;2024-01-11T07:09:05;214465.59;;;-7.20
68440;BMP180;55421;51.600;5.718;2024-01-11T07:11:32;214473.20;;;-7.20
68440;BMP180;55421;51.600;5.718;2024-01-11T07:13:58;214493.59;;;-7.20
68440;BMP180;55421;51.600;5.718;2024-01-11T07:16:25;214503.80;;;-7.14
68440;BMP180;55421;51.600;5.718;2024-01-11T07:18:51;214500.00;;;-7.20
68440;BMP180;55421;51.600;5.718;2024-01-11T07:21:24;214507.59;;;-7.20
68440;BMP180;55421;51.600;5.718;2024-01-11T07:24:01;214510.41;;;-7.18
68440;BMP180;55421;51.600;5.718;2024-01-11T07:26:27;214477.59;;;-7.20
68440;BMP180;55421;51.600;5.718;2024-01-11T07:28:54;214470.00;;;-7.20
68440;BMP180;55421;51.600;5.718;2024-01-11T07:31:24;214476.41;;;-7.20
68440;BMP180;55421;51.600;5.718;2024-01-11T07:33:50;214500.00;;;-7.18
68440;BMP180;55421;51.600;5.718;2024-01-11T07:36:17;214555.59;;;-7.10
68440;BMP180;55421;51.600;5.718;2024-01-11T07:38:43;214562.41;;;-7.10
68440;BMP180;55421;51.600;5.718;2024-01-11T07:41:10;214577.59;;;-7.00
68440;BMP180;55421;51.600;5.718;2024-01-11T07:43:37;214572.00;;;-7.00
68440;BMP180;55421;51.600;5.718;2024-01-11T07:46:04;214562.41;;;-7.06
68440;BMP180;55421;51.600;5.718;2024-01-11T07:48:32;214535.41;;;-7.10
68440;BMP180;55421;51.600;5.718;2024-01-11T07:50:59;214503.80;;;-7.16
68440;BMP180;55421;51.600;5.718;2024-01-11T07:53:26;214530.20;;;-7.10
68440;BMP180;55421;51.600;5.718;2024-01-11T07:55:52;214560.00;;;-7.08
68440;BMP180;55421;51.600;5.718;2024-01-11T07:58:19;214595.20;;;-7.00
68440;BMP180;55421;51.600;5.718;2024-01-11T08:00:48;214624.41;;;-6.92
68440;BMP180;55421;51.600;5.718;2024-01-11T08:03:15;214642.41;;;-6.90
68440;BMP180;55421;51.600;5.718;2024-01-11T08:05:42;214634.00;;;-6.90
68440;BMP180;55421;51.600;5.718;2024-01-11T08:08:09;214635.20;;;-6.90
68440;BMP180;55421;51.600;5.718;2024-01-11T08:10:36;214635.20;;;-6.90
68440;BMP180;55421;51.600;5.718;2024-01-11T08:13:03;214652.80;;;-6.90
68440;BMP180;55421;51.600;5.718;2024-01-11T08:15:30;214662.80;;;-6.90
68440;BMP180;55421;51.600;5.718;2024-01-11T08:17:56;214654.41;;;-6.90
68440;BMP180;55421;51.600;5.718;2024-01-11T08:20:23;214648.80;;;-6.90
68440;BMP180;55421;51.600;5.718;2024-01-11T08:22:50;214661.20;;;-6.90
68440;BMP180;55421;51.600;5.718;2024-01-11T08:25:16;214672.00;;;-6.86
68440;BMP180;55421;51.600;5.718;2024-01-11T08:27:43;214695.00;;;-6.80
68440;BMP180;55421;51.600;5.718;2024-01-11T08:30:10;214750.20;;;-6.70
68440;BMP180;55421;51.600;5.718;2024-01-11T08:32:38;214802.00;;;-6.60
68440;BMP180;55421;51.600;5.718;2024-01-11T08:35:06;214839.80;;;-6.50
68440;BMP180;55421;51.600;5.718;2024-01-11T08:37:33;214870.59;;;-6.50
68440;BMP180;55421;51.600;5.718;2024-01-11T08:39:59;214879.80;;;-6.50
68440;BMP180;55421;51.600;5.718;2024-01-11T08:42:27;214906.59;;;-6.42
68440;BMP180;55421;51.600;5.718;2024-01-11T08:44:54;214946.41;;;-6.40
68440;BMP180;55421;51.600;5.718;2024-01-11T08:47:21;214975.20;;;-6.30
68440;BMP180;55421;51.600;5.718;2024-01-11T08:49:47;215010.80;;;-6.26
68440;BMP180;55421;51.600;5.718;2024-01-11T08:52:13;215053.41;;;-6.20
68440;BMP180;55421;51.600;5.718;2024-01-11T08:54:40;215106.00;;;-6.10
68440;BMP180;55421;51.600;5.718;2024-01-11T08:57:06;215136.80;;;-6.00
68440;BMP180;55421;51.600;5.718;2024-01-11T08:59:33;215163.20;;;-6.00
68440;BMP180;55421;51.600;5.718;2024-01-11T09:01:59;215186.00;;;-5.90
68440;BMP180;55421;51.600;5.718;2024-01-11T09:04:26;215194.00;;;-5.90
68440;BMP180;55421;51.600;5.718;2024-01-11T09:06:55;215208.41;;;-5.90
68440;BMP180;55421;51.600;5.718;2024-01-11T09:09:22;215224.20;;;-5.88
68440;BMP180;55421;51.600;5.718;2024-01-11T09:11:48;215251.41;;;-5.80
68440;BMP180;55421;51.600;5.718;2024-01-11T09:14:16;215296.00;;;-5.70
68440;BMP180;55421;51.600;5.718;2024-01-11T09:16:42;215346.00;;;-5.70
68440;BMP180;55421;51.600;5.718;2024-01-11T09:19:10;215373.41;;;-5.60
68440;BMP180;55421;51.600;5.718;2024-01-11T09:21:37;215401.80;;;-5.60
68440;BMP180;55421;51.600;5.718;2024-01-11T09:24:04;215416.59;;;-5.50
68440;BMP180;55421;51.600;5.718;2024-01-11T09:26:30;215431.00;;;-5.50
68440;BMP180;55421;51.600;5.718;2024-01-11T09:28:57;215461.41;;;-5.42
68440;BMP180;55421;51.600;5.718;2024-01-11T09:31:24;215485.20;;;-5.40
68440;BMP180;55421;51.600;5.718;2024-01-11T09:33:50;215507.59;;;-5.38
68440;BMP180;55421;51.600;5.718;2024-01-11T09:36:17;215532.41;;;-5.30
68440;BMP180;55421;51.600;5.718;2024-01-11T09:38:43;215565.00;;;-5.24
68440;BMP180;55421;51.600;5.718;2024-01-11T09:41:13;215594.59;;;-5.20
68440;BMP180;55421;51.600;5.718;2024-01-11T09:43:43;215640.00;;;-5.10
68440;BMP180;55421;51.600;5.718;2024-01-11T09:46:11;215710.41;;;-5.00
68440;BMP180;55421;51.600;5.718;2024-01-11T09:48:40;215754.80;;;-4.90
68440;BMP180;55421;51.600;5.718;2024-01-11T09:51:10;215781.41;;;-4.88
68440;BMP180;55421;51.600;5.718;2024-01-11T09:53:40;215813.59;;;-4.80
68440;BMP180;55421;51.600;5.718;2024-01-11T09:56:09;215832.41;;;-4.80
68440;BMP180;55421;51.600;5.718;2024-01-11T09:58:36;215866.20;;;-4.70
68440;BMP180;55421;51.600;5.718;2024-01-11T10:01:09;215900.20;;;-4.70
68440;BMP180;55421;51.600;5.718;2024-01-11T10:03:41;215937.00;;;-4.60
68440;BMP180;55421;51.600;5.718;2024-01-11T10:06:08;215986.59;;;-4.50
68440;BMP180;55421;51.600;5.718;2024-01-11T10:08:36;216031.59;;;-4.40
68440;BMP180;55421;51.600;5.718;2024-01-11T10:11:03;216050.80;;;-4.40
68440;BMP180;55421;51.600;5.718;2024-01-11T10:13:31;211994.20;;;-4.30
68440;BMP180;55421;51.600;5.718;2024-01-11T10:16:09;212032.20;;;-4.30
68440;BMP180;55421;51.600;5.718;2024-01-11T10:18:36;212078.41;;;-4.20
68440;BMP180;55421;51.600;5.718;2024-01-11T10:21:03;212120.41;;;-4.10
68440;BMP180;55421;51.600;5.718;2024-01-11T10:23:33;212164.41;;;-4.00
68440;BMP180;55421;51.600;5.718;2024-01-11T10:26:00;212210.59;;;-3.90
68440;BMP180;55421;51.600;5.718;2024-01-11T10:28:27;212252.41;;;-3.90
68440;BMP180;55421;51.600;5.718;2024-01-11T10:30:53;212282.80;;;-3.80
68440;BMP180;55421;51.600;5.718;2024-01-11T10:33:22;212337.80;;;-3.70
68440;BMP180;55421;51.600;5.718;2024-01-11T10:35:49;212393.00;;;-3.60
68440;BMP180;55421;51.600;5.718;2024-01-11T10:38:17;212448.20;;;-3.50
68440;BMP180;55421;51.600;5.718;2024-01-11T10:40:44;212495.41;;;-3.40
68440;BMP180;55421;51.600;5.718;2024-01-11T10:43:15;212526.20;;;-3.34
68440;BMP180;55421;51.600;5.718;2024-01-11T10:45:51;212546.20;;;-3.30
68440;BMP180;55421;51.600;5.718;2024-01-11T10:48:25;212558.59;;;-3.30
68440;BMP180;55421;51.600;5.718;2024-01-11T10:51:00;212581.41;;;-3.30
68440;BMP180;55421;51.600;5.718;2024-01-11T10:53:43;212594.41;;;-3.20
68440;BMP180;55421;51.600;5.718;2024-01-11T10:56:13;212618.41;;;-3.20
68440;BMP180;55421;51.600;5.718;2024-01-11T10:58:42;212638.41;;;-3.16
68440;BMP180;55421;51.600;5.718;2024-01-11T11:01:11;212657.59;;;-3.10
68440;BMP180;55421;51.600;5.718;2024-01-11T11:03:39;212670.41;;;-3.10
68440;BMP180;55421;51.600;5.718;2024-01-11T11:06:11;212685.20;;;-3.10
68440;BMP180;55421;51.600;5.718;2024-01-11T11:08:39;212684.00;;;-3.10
68440;BMP180;55421;51.600;5.718;2024-01-11T11:11:06;212691.20;;;-3.10
68440;BMP180;55421;51.600;5.718;2024-01-11T11:13:33;212708.41;;;-3.04
68440;BMP180;55421;51.600;5.718;2024-01-11T11:16:01;212733.00;;;-3.00
68440;BMP180;55421;51.600;5.718;2024-01-11T11:18:31;212774.41;;;-2.90
68440;BMP180;55421;51.600;5.718;2024-01-11T11:21:00;212808.80;;;-2.90
68440;BMP180;55421;51.600;5.718;2024-01-11T11:23:27;212822.41;;;-2.82
68440;BMP180;55421;51.600;5.718;2024-01-11T11:25:55;212844.00;;;-2.80
68440;BMP180;55421;51.600;5.718;2024-01-11T11:28:26;212862.80;;;-2.80
68440;BMP180;55421;51.600;5.718;2024-01-11T11:30:53;212876.20;;;-2.72
68440;BMP180;55421;51.600;5.718;2024-01-11T11:33:23;212879.80;;;-2.70
68440;BMP180;55421;51.600;5.718;2024-01-11T11:35:57;212883.41;;;-2.70
68440;BMP180;55421;51.600;5.718;2024-01-11T11:38:31;212882.20;;;-2.70
68440;BMP180;55421;51.600;5.718;2024-01-11T11:40:59;212892.59;;;-2.70
68440;BMP180;55421;51.600;5.718;2024-01-11T11:43:29;212909.41;;;-2.70
68440;BMP180;55421;51.600;5.718;2024-01-11T11:45:57;212930.59;;;-2.60
68440;BMP180;55421;51.600;5.718;2024-01-11T11:51:22;212946.20;;;-2.60
68440;BMP180;55421;51.600;5.718;2024-01-11T11:53:51;212966.59;;;-2.60
68440;BMP180;55421;51.600;5.718;2024-01-11T11:56:21;212983.00;;;-2.52
68440;BMP180;55421;51.600;5.718;2024-01-11T11:58:49;213000.20;;;-2.50
68440;BMP180;55421;51.600;5.718;2024-01-11T12:01:18;213016.20;;;-2.50
68440;BMP180;55421;51.600;5.718;2024-01-11T12:03:46;213036.59;;;-2.50
68440;BMP180;55421;51.600;5.718;2024-01-11T12:06:20;213045.00;;;-2.44
68440;BMP180;55421;51.600;5.718;2024-01-11T12:08:52;213052.20;;;-2.40
68440;BMP180;55421;51.600;5.718;2024-01-11T12:11:20;213049.41;;;-2.42
68440;BMP180;55421;51.600;5.718;2024-01-11T12:13:49;213046.59;;;-2.40
68440;BMP180;55421;51.600;5.718;2024-01-11T12:16:16;213067.41;;;-2.40
68440;BMP180;55421;51.600;5.718;2024-01-11T12:18:43;213076.59;;;-2.40
68440;BMP180;55421;51.600;5.718;2024-01-11T12:21:09;213079.41;;;-2.40
68440;BMP180;55421;51.600;5.718;2024-01-11T12:23:38;213089.80;;;-2.40
68440;BMP180;55421;51.600;5.718;2024-01-11T12:26:08;213100.20;;;-2.32
68440;BMP180;55421;51.600;5.718;2024-01-11T12:28:40;213105.80;;;-2.30
68440;BMP180;55421;51.600;5.718;2024-01-11T12:31:07;213107.80;;;-2.30
68440;BMP180;55421;51.600;5.718;2024-01-11T12:33:34;213116.59;;;-2.30
68440;BMP180;55421;51.600;5.718;2024-01-11T12:36:02;213137.00;;;-2.30
68440;BMP180;55421;51.600;5.718;2024-01-11T12:38:28;213135.41;;;-2.30
68440;BMP180;55421;51.600;5.718;2024-01-11T12:40:55;213139.59;;;-2.30
68440;BMP180;55421;51.600;5.718;2024-01-11T12:43:22;213137.00;;;-2.30
68440;BMP180;55421;51.600;5.718;2024-01-11T12:45:48;213156.00;;;-2.20
68440;BMP180;55421;51.600;5.718;2024-01-11T12:48:15;213185.20;;;-2.20
68440;BMP180;55421;51.600;5.718;2024-01-11T12:50:43;213218.80;;;-2.10
68440;BMP180;55421;51.600;5.718;2024-01-11T12:53:14;213235.59;;;-2.10
68440;BMP180;55421;51.600;5.718;2024-01-11T12:55:52;213246.80;;;-2.10
68440;BMP180;55421;51.600;5.718;2024-01-11T12:58:28;213264.41;;;-2.10
68440;BMP180;55421;51.600;5.718;2024-01-11T13:00:55;213270.00;;;-2.02
68440;BMP180;55421;51.600;5.718;2024-01-11T13:03:25;213273.59;;;-2.00
68440;BMP180;55421;51.600;5.718;2024-01-11T13:05:53;213290.80;;;-2.00
68440;BMP180;55421;51.600;5.718;2024-01-11T13:08:20;213314.41;;;-1.96
68440;BMP180;55421;51.600;5.718;2024-01-11T13:10:47;213352.80;;;-1.90
68440;BMP180;55421;51.600;5.718;2024-01-11T13:13:14;213392.41;;;-1.80
68440;BMP180;55421;51.600;5.718;2024-01-11T13:15:40;213415.00;;;-1.80
68440;BMP180;55421;51.600;5.718;2024-01-11T13:18:07;213428.59;;;-1.78
68440;BMP180;55421;51.600;5.718;2024-01-11T13:20:33;213416.20;;;-1.80
68440;BMP180;55421;51.600;5.718;2024-01-11T13:23:15;213399.59;;;-1.80
68440;BMP180;55421;51.600;5.718;2024-01-11T13:25:44;213398.41;;;-1.80
68440;BMP180;55421;51.600;5.718;2024-01-11T13:28:11;213442.59;;;-1.70
68440;BMP180;55421;51.600;5.718;2024-01-11T13:30:43;213431.41;;;-1.76
68440;BMP180;55421;51.600;5.718;2024-01-11T13:33:10;213408.20;;;-1.80
68440;BMP180;55421;51.600;5.718;2024-01-11T13:35:39;213379.59;;;-1.84
68440;BMP180;55421;51.600;5.718;2024-01-11T13:38:06;213331.59;;;-1.90
68440;BMP180;55421;51.600;5.718;2024-01-11T13:40:32;213311.59;;;-2.00
68440;BMP180;55421;51.600;5.718;2024-01-11T13:42:59;213316.00;;;-1.96
68440;BMP180;55421;51.600;5.718;2024-01-11T13:45:27;213318.80;;;-1.96
68440;BMP180;55421;51.600;5.718;2024-01-11T13:47:54;213314.41;;;-1.94
68440;BMP180;55421;51.600;5.718;2024-01-11T13:50:22;213306.41;;;-2.00
68440;BMP180;55421;51.600;5.718;2024-01-11T13:52:50;213308.80;;;-2.00
68440;BMP180;55421;51.600;5.718;2024-01-11T13:55:17;213329.59;;;-1.90
68440;BMP180;55421;51.600;5.718;2024-01-11T13:57:44;213343.59;;;-1.90
68440;BMP180;55421;51.600;5.718;2024-01-11T14:00:12;213366.80;;;-1.90